sensor_id;sensor_type;location;lat;lon;timestamp;P1;durP1;ratioP1;P2;durP2;ratioP2
41305;SDS011;27051;50.376;19.152;2022-11-11T00:01:08;65.40;;;37.65;;
41305;SDS011;27051;50.376;19.152;2022-11-11T00:03:38;75.25;;;39.60;;
41305;SDS011;27051;50.376;19.152;2022-11-11T00:06:07;66.42;;;37.45;;
41305;SDS011;27051;50.376;19.152;2022-11-11T00:08:37;70.62;;;38.10;;
41305;SDS011;27051;50.376;19.152;2022-11-11T00:11:04;66.15;;;37.48;;
41305;SDS011;27051;50.376;19.152;2022-11-11T00:13:34;68.85;;;36.60;;
41305;SDS011;27051;50.376;19.152;2022-11-11T00:16:02;62.60;;;34.38;;
41305;SDS011;27051;50.376;19.152;2022-11-11T00:18:32;62.58;;;35.17;;
41305;SDS011;27051;50.376;19.152;2022-11-11T00:20:59;68.25;;;36.98;;
41305;SDS011;27051;50.376;19.152;2022-11-11T00:23:25;61.70;;;34.87;;
41305;SDS011;27051;50.376;19.152;2022-11-11T00:25:53;67.37;;;36.70;;
41305;SDS011;27051;50.376;19.152;2022-11-11T00:28:18;62.90;;;35.83;;
41305;SDS011;27051;50.376;19.152;2022-11-11T00:30:44;61.47;;;35.77;;
41305;SDS011;27051;50.376;19.152;2022-11-11T00:33:10;67.07;;;36.77;;
41305;SDS011;27051;50.376;19.152;2022-11-11T00:35:36;71.67;;;36.20;;
41305;SDS011;27051;50.376;19.152;2022-11-11T00:38:09;64.03;;;35.30;;
41305;SDS011;27051;50.376;19.152;2022-11-11T00:40:34;62.15;;;35.05;;
41305;SDS011;27051;50.376;19.152;2022-11-11T00:43:00;61.37;;;35.83;;
41305;SDS011;27051;50.376;19.152;2022-11-11T00:45:26;68.85;;;35.85;;
41305;SDS011;27051;50.376;19.152;2022-11-11T00:47:54;61.80;;;35.60;;
41305;SDS011;27051;50.376;19.152;2022-11-11T00:50:21;76.90;;;39.97;;
41305;SDS011;27051;50.376;19.152;2022-11-11T00:52:50;71.42;;;39.58;;
41305;SDS011;27051;50.376;19.152;2022-11-11T00:55:16;72.77;;;40.63;;
41305;SDS011;27051;50.376;19.152;2022-11-11T00:57:42;73.55;;;40.00;;
41305;SDS011;27051;50.376;19.152;2022-11-11T01:00:08;73.70;;;41.03;;
41305;SDS011;27051;50.376;19.152;2022-11-11T01:02:35;70.25;;;41.00;;
41305;SDS011;27051;50.376;19.152;2022-11-11T01:05:01;76.57;;;41.87;;
41305;SDS011;27051;50.376;19.152;2022-11-11T01:07:27;79.30;;;39.90;;
41305;SDS011;27051;50.376;19.152;2022-11-11T01:09:53;75.27;;;41.10;;
41305;SDS011;27051;50.376;19.152;2022-11-11T01:12:18;69.53;;;38.05;;
41305;SDS011;27051;50.376;19.152;2022-11-11T01:14:44;72.50;;;40.60;;
41305;SDS011;27051;50.376;19.152;2022-11-11T01:17:09;73.00;;;41.00;;
41305;SDS011;27051;50.376;19.152;2022-11-11T01:19:35;72.60;;;37.73;;
41305;SDS011;27051;50.376;19.152;2022-11-11T01:22:01;67.77;;;36.63;;
41305;SDS011;27051;50.376;19.152;2022-11-11T01:24:27;69.47;;;37.87;;
41305;SDS011;27051;50.376;19.152;2022-11-11T01:26:53;67.17;;;35.73;;
41305;SDS011;27051;50.376;19.152;2022-11-11T01:29:18;66.07;;;36.27;;
41305;SDS011;27051;50.376;19.152;2022-11-11T01:31:44;71.33;;;35.90;;
41305;SDS011;27051;50.376;19.152;2022-11-11T01:34:10;60.97;;;35.70;;
41305;SDS011;27051;50.376;19.152;2022-11-11T01:36:36;63.08;;;34.18;;
41305;SDS011;27051;50.376;19.152;2022-11-11T01:39:01;65.28;;;34.78;;
41305;SDS011;27051;50.376;19.152;2022-11-11T01:41:32;60.80;;;35.20;;
41305;SDS011;27051;50.376;19.152;2022-11-11T01:43:59;71.00;;;35.23;;
41305;SDS011;27051;50.376;19.152;2022-11-11T01:46:42;64.10;;;36.53;;
41305;SDS011;27051;50.376;19.152;2022-11-11T01:54:50;63.02;;;36.75;;
41305;SDS011;27051;50.376;19.152;2022-11-11T01:57:32;70.50;;;38.17;;
41305;SDS011;27051;50.376;19.152;2022-11-11T01:59:59;63.17;;;34.18;;
41305;SDS011;27051;50.376;19.152;2022-11-11T02:05:09;67.20;;;35.25;;
41305;SDS011;27051;50.376;19.152;2022-11-11T02:07:38;62.15;;;33.55;;
41305;SDS011;27051;50.376;19.152;2022-11-11T02:10:06;67.95;;;36.15;;
41305;SDS011;27051;50.376;19.152;2022-11-11T02:12:45;63.87;;;34.63;;
41305;SDS011;27051;50.376;19.152;2022-11-11T02:15:11;66.37;;;34.87;;
41305;SDS011;27051;50.376;19.152;2022-11-11T02:17:37;60.93;;;34.20;;
41305;SDS011;27051;50.376;19.152;2022-11-11T02:20:04;67.20;;;35.53;;
41305;SDS011;27051;50.376;19.152;2022-11-11T02:22:37;67.82;;;35.85;;
41305;SDS011;27051;50.376;19.152;2022-11-11T02:25:06;59.93;;;34.08;;
41305;SDS011;27051;50.376;19.152;2022-11-11T02:27:36;63.90;;;34.33;;
41305;SDS011;27051;50.376;19.152;2022-11-11T02:30:05;63.70;;;33.95;;
41305;SDS011;27051;50.376;19.152;2022-11-11T02:32:33;68.97;;;34.98;;
41305;SDS011;27051;50.376;19.152;2022-11-11T02:34:58;69.23;;;35.77;;
41305;SDS011;27051;50.376;19.152;2022-11-11T02:37:25;67.80;;;33.83;;
41305;SDS011;27051;50.376;19.152;2022-11-11T02:39:52;62.85;;;34.33;;
41305;SDS011;27051;50.376;19.152;2022-11-11T02:42:22;65.42;;;35.58;;
41305;SDS011;27051;50.376;19.152;2022-11-11T02:44:48;62.67;;;34.78;;
41305;SDS011;27051;50.376;19.152;2022-11-11T02:47:14;56.33;;;30.50;;
41305;SDS011;27051;50.376;19.152;2022-11-11T02:49:40;54.23;;;31.50;;
41305;SDS011;27051;50.376;19.152;2022-11-11T02:52:05;49.97;;;28.47;;
41305;SDS011;27051;50.376;19.152;2022-11-11T02:54:32;53.90;;;31.17;;
41305;SDS011;27051;50.376;19.152;2022-11-11T02:56:57;50.20;;;28.23;;
41305;SDS011;27051;50.376;19.152;2022-11-11T02:59:23;49.87;;;27.77;;
41305;SDS011;27051;50.376;19.152;2022-11-11T03:01:49;49.47;;;26.93;;
41305;SDS011;27051;50.376;19.152;2022-11-11T03:04:14;50.75;;;29.42;;
41305;SDS011;27051;50.376;19.152;2022-11-11T03:06:40;59.75;;;29.40;;
41305;SDS011;27051;50.376;19.152;2022-11-11T03:09:06;51.13;;;30.33;;
41305;SDS011;27051;50.376;19.152;2022-11-11T03:11:31;53.27;;;30.30;;
41305;SDS011;27051;50.376;19.152;2022-11-11T03:13:57;52.57;;;29.67;;
41305;SDS011;27051;50.376;19.152;2022-11-11T03:16:24;53.28;;;28.52;;
41305;SDS011;27051;50.376;19.152;2022-11-11T03:18:51;52.17;;;28.50;;
41305;SDS011;27051;50.376;19.152;2022-11-11T03:21:16;51.90;;;27.40;;
41305;SDS011;27051;50.376;19.152;2022-11-11T03:23:42;58.67;;;30.57;;
41305;SDS011;27051;50.376;19.152;2022-11-11T03:26:08;55.97;;;31.43;;
41305;SDS011;27051;50.376;19.152;2022-11-11T03:28:33;61.57;;;34.17;;
41305;SDS011;27051;50.376;19.152;2022-11-11T03:30:59;62.67;;;33.77;;
41305;SDS011;27051;50.376;19.152;2022-11-11T03:33:25;63.37;;;35.57;;
41305;SDS011;27051;50.376;19.152;2022-11-11T03:35:50;65.07;;;35.00;;
41305;SDS011;27051;50.376;19.152;2022-11-11T03:38:16;63.70;;;33.37;;
41305;SDS011;27051;50.376;19.152;2022-11-11T03:40:42;66.30;;;36.50;;
41305;SDS011;27051;50.376;19.152;2022-11-11T03:43:10;60.65;;;34.23;;
41305;SDS011;27051;50.376;19.152;2022-11-11T03:45:38;59.00;;;34.35;;
41305;SDS011;27051;50.376;19.152;2022-11-11T03:48:04;56.48;;;32.33;;
41305;SDS011;27051;50.376;19.152;2022-11-11T03:50:31;59.65;;;30.17;;
41305;SDS011;27051;50.376;19.152;2022-11-11T03:52:57;53.85;;;29.63;;
41305;SDS011;27051;50.376;19.152;2022-11-11T03:55:23;56.67;;;31.90;;
41305;SDS011;27051;50.376;19.152;2022-11-11T03:57:49;55.57;;;32.50;;
41305;SDS011;27051;50.376;19.152;2022-11-11T04:00:16;60.25;;;34.43;;
41305;SDS011;27051;50.376;19.152;2022-11-11T04:02:45;59.98;;;34.45;;
41305;SDS011;27051;50.376;19.152;2022-11-11T04:05:10;67.50;;;35.88;;
41305;SDS011;27051;50.376;19.152;2022-11-11T04:07:36;92.27;;;43.17;;
41305;SDS011;27051;50.376;19.152;2022-11-11T04:10:02;94.83;;;47.20;;
41305;SDS011;27051;50.376;19.152;2022-11-11T04:12:29;84.77;;;43.73;;
41305;SDS011;27051;50.376;19.152;2022-11-11T04:14:57;78.47;;;43.38;;
41305;SDS011;27051;50.376;19.152;2022-11-11T04:17:23;73.00;;;39.43;;
41305;SDS011;27051;50.376;19.152;2022-11-11T04:19:48;66.17;;;37.83;;
41305;SDS011;27051;50.376;19.152;2022-11-11T04:22:14;66.77;;;36.97;;
41305;SDS011;27051;50.376;19.152;2022-11-11T04:24:39;59.60;;;33.23;;
41305;SDS011;27051;50.376;19.152;2022-11-11T04:27:06;59.57;;;32.53;;
41305;SDS011;27051;50.376;19.152;2022-11-11T04:29:35;51.55;;;30.25;;
41305;SDS011;27051;50.376;19.152;2022-11-11T04:32:06;56.25;;;31.45;;
41305;SDS011;27051;50.376;19.152;2022-11-11T04:34:31;53.98;;;27.15;;
41305;SDS011;27051;50.376;19.152;2022-11-11T04:36:57;53.73;;;28.83;;
41305;SDS011;27051;50.376;19.152;2022-11-11T04:39:23;49.85;;;28.23;;
41305;SDS011;27051;50.376;19.152;2022-11-11T04:41:48;50.03;;;29.20;;
41305;SDS011;27051;50.376;19.152;2022-11-11T04:44:14;64.10;;;33.27;;
41305;SDS011;27051;50.376;19.152;2022-11-11T04:46:39;55.95;;;30.50;;
41305;SDS011;27051;50.376;19.152;2022-11-11T04:49:05;54.57;;;29.40;;
41305;SDS011;27051;50.376;19.152;2022-11-11T04:51:31;52.93;;;30.17;;
41305;SDS011;27051;50.376;19.152;2022-11-11T04:53:57;51.70;;;27.67;;
41305;SDS011;27051;50.376;19.152;2022-11-11T04:56:22;53.80;;;28.80;;
41305;SDS011;27051;50.376;19.152;2022-11-11T04:58:48;57.17;;;31.57;;
41305;SDS011;27051;50.376;19.152;2022-11-11T05:01:13;59.33;;;31.73;;
41305;SDS011;27051;50.376;19.152;2022-11-11T05:03:39;46.57;;;27.50;;
41305;SDS011;27051;50.376;19.152;2022-11-11T05:06:05;56.73;;;30.27;;
41305;SDS011;27051;50.376;19.152;2022-11-11T05:08:31;53.15;;;29.48;;
41305;SDS011;27051;50.376;19.152;2022-11-11T05:10:58;61.17;;;33.27;;
41305;SDS011;27051;50.376;19.152;2022-11-11T05:13:24;60.55;;;31.25;;
41305;SDS011;27051;50.376;19.152;2022-11-11T05:15:49;61.00;;;32.83;;
41305;SDS011;27051;50.376;19.152;2022-11-11T05:18:15;60.73;;;31.03;;
41305;SDS011;27051;50.376;19.152;2022-11-11T05:20:41;59.50;;;32.03;;
41305;SDS011;27051;50.376;19.152;2022-11-11T05:23:06;58.90;;;31.20;;
41305;SDS011;27051;50.376;19.152;2022-11-11T05:25:32;66.53;;;32.77;;
41305;SDS011;27051;50.376;19.152;2022-11-11T05:27:58;72.70;;;35.50;;
41305;SDS011;27051;50.376;19.152;2022-11-11T05:30:24;63.20;;;32.47;;
41305;SDS011;27051;50.376;19.152;2022-11-11T05:32:50;67.53;;;33.05;;
41305;SDS011;27051;50.376;19.152;2022-11-11T05:35:16;66.10;;;33.88;;
41305;SDS011;27051;50.376;19.152;2022-11-11T05:37:43;66.57;;;35.95;;
41305;SDS011;27051;50.376;19.152;2022-11-11T05:40:09;63.07;;;33.07;;
41305;SDS011;27051;50.376;19.152;2022-11-11T05:42:40;70.83;;;35.68;;
41305;SDS011;27051;50.376;19.152;2022-11-11T05:45:07;98.40;;;48.40;;
41305;SDS011;27051;50.376;19.152;2022-11-11T05:47:34;72.75;;;40.45;;
41305;SDS011;27051;50.376;19.152;2022-11-11T05:50:00;73.83;;;40.27;;
41305;SDS011;27051;50.376;19.152;2022-11-11T05:52:25;69.63;;;37.93;;
41305;SDS011;27051;50.376;19.152;2022-11-11T05:54:51;65.10;;;36.33;;
41305;SDS011;27051;50.376;19.152;2022-11-11T05:57:17;60.20;;;33.90;;
41305;SDS011;27051;50.376;19.152;2022-11-11T05:59:42;60.70;;;34.47;;
41305;SDS011;27051;50.376;19.152;2022-11-11T06:02:08;64.17;;;36.83;;
41305;SDS011;27051;50.376;19.152;2022-11-11T06:04:35;63.60;;;35.27;;
41305;SDS011;27051;50.376;19.152;2022-11-11T06:07:00;65.10;;;36.33;;
41305;SDS011;27051;50.376;19.152;2022-11-11T06:09:26;61.63;;;35.23;;
41305;SDS011;27051;50.376;19.152;2022-11-11T06:11:52;57.30;;;33.87;;
41305;SDS011;27051;50.376;19.152;2022-11-11T06:14:17;51.47;;;28.07;;
41305;SDS011;27051;50.376;19.152;2022-11-11T06:16:43;52.23;;;27.53;;
41305;SDS011;27051;50.376;19.152;2022-11-11T06:19:09;47.03;;;26.60;;
41305;SDS011;27051;50.376;19.152;2022-11-11T06:21:35;58.73;;;29.13;;
41305;SDS011;27051;50.376;19.152;2022-11-11T06:24:00;70.67;;;33.27;;
41305;SDS011;27051;50.376;19.152;2022-11-11T06:26:26;63.37;;;31.23;;
41305;SDS011;27051;50.376;19.152;2022-11-11T06:28:52;48.90;;;26.25;;
41305;SDS011;27051;50.376;19.152;2022-11-11T06:31:25;49.83;;;27.10;;
41305;SDS011;27051;50.376;19.152;2022-11-11T06:33:50;49.08;;;28.02;;
41305;SDS011;27051;50.376;19.152;2022-11-11T06:36:17;49.00;;;25.88;;
41305;SDS011;27051;50.376;19.152;2022-11-11T06:38:44;47.20;;;24.92;;
41305;SDS011;27051;50.376;19.152;2022-11-11T06:41:10;45.67;;;25.48;;
41305;SDS011;27051;50.376;19.152;2022-11-11T06:43:37;44.90;;;25.15;;
41305;SDS011;27051;50.376;19.152;2022-11-11T06:46:04;47.55;;;25.40;;
41305;SDS011;27051;50.376;19.152;2022-11-11T06:48:30;46.45;;;26.12;;
41305;SDS011;27051;50.376;19.152;2022-11-11T06:51:03;43.57;;;24.07;;
41305;SDS011;27051;50.376;19.152;2022-11-11T06:53:30;40.88;;;23.60;;
41305;SDS011;27051;50.376;19.152;2022-11-11T06:55:57;44.35;;;23.62;;
41305;SDS011;27051;50.376;19.152;2022-11-11T06:58:23;47.08;;;24.18;;
41305;SDS011;27051;50.376;19.152;2022-11-11T07:00:50;43.87;;;25.77;;
41305;SDS011;27051;50.376;19.152;2022-11-11T07:03:17;45.90;;;25.07;;
41305;SDS011;27051;50.376;19.152;2022-11-11T07:05:45;43.42;;;23.75;;
41305;SDS011;27051;50.376;19.152;2022-11-11T07:08:16;42.13;;;22.55;;
41305;SDS011;27051;50.376;19.152;2022-11-11T07:10:45;37.98;;;22.40;;
41305;SDS011;27051;50.376;19.152;2022-11-11T07:15:39;38.67;;;22.55;;
41305;SDS011;27051;50.376;19.152;2022-11-11T07:18:07;38.92;;;22.70;;
41305;SDS011;27051;50.376;19.152;2022-11-11T07:20:33;40.48;;;22.25;;
41305;SDS011;27051;50.376;19.152;2022-11-11T07:22:59;43.78;;;24.37;;
41305;SDS011;27051;50.376;19.152;2022-11-11T07:25:25;42.70;;;24.13;;
41305;SDS011;27051;50.376;19.152;2022-11-11T07:27:51;41.57;;;22.77;;
41305;SDS011;27051;50.376;19.152;2022-11-11T07:30:17;35.08;;;20.77;;
41305;SDS011;27051;50.376;19.152;2022-11-11T07:32:43;48.63;;;25.23;;
41305;SDS011;27051;50.376;19.152;2022-11-11T07:35:14;50.30;;;26.30;;
41305;SDS011;27051;50.376;19.152;2022-11-11T07:37:41;44.00;;;25.50;;
41305;SDS011;27051;50.376;19.152;2022-11-11T07:40:07;38.27;;;24.27;;
41305;SDS011;27051;50.376;19.152;2022-11-11T07:42:36;48.65;;;28.23;;
41305;SDS011;27051;50.376;19.152;2022-11-11T07:45:03;53.68;;;27.95;;
41305;SDS011;27051;50.376;19.152;2022-11-11T07:47:32;48.48;;;28.45;;
41305;SDS011;27051;50.376;19.152;2022-11-11T07:49:58;44.33;;;25.43;;
41305;SDS011;27051;50.376;19.152;2022-11-11T07:52:23;48.33;;;29.63;;
41305;SDS011;27051;50.376;19.152;2022-11-11T07:54:49;53.20;;;29.77;;
41305;SDS011;27051;50.376;19.152;2022-11-11T07:57:15;48.00;;;27.05;;
41305;SDS011;27051;50.376;19.152;2022-11-11T07:59:40;50.00;;;29.10;;
41305;SDS011;27051;50.376;19.152;2022-11-11T08:02:09;52.60;;;28.97;;
41305;SDS011;27051;50.376;19.152;2022-11-11T08:04:36;46.83;;;27.40;;
41305;SDS011;27051;50.376;19.152;2022-11-11T08:07:02;46.50;;;25.57;;
41305;SDS011;27051;50.376;19.152;2022-11-11T08:09:28;42.75;;;25.80;;
41305;SDS011;27051;50.376;19.152;2022-11-11T08:11:54;34.23;;;20.87;;
41305;SDS011;27051;50.376;19.152;2022-11-11T08:14:19;39.37;;;21.57;;
41305;SDS011;27051;50.376;19.152;2022-11-11T08:16:45;44.53;;;23.60;;
41305;SDS011;27051;50.376;19.152;2022-11-11T08:19:11;43.48;;;24.23;;
41305;SDS011;27051;50.376;19.152;2022-11-11T08:21:37;46.80;;;25.48;;
41305;SDS011;27051;50.376;19.152;2022-11-11T08:24:02;45.50;;;27.63;;
41305;SDS011;27051;50.376;19.152;2022-11-11T08:26:28;41.70;;;25.68;;
41305;SDS011;27051;50.376;19.152;2022-11-11T08:28:54;36.90;;;23.30;;
41305;SDS011;27051;50.376;19.152;2022-11-11T08:31:20;39.20;;;22.27;;
41305;SDS011;27051;50.376;19.152;2022-11-11T08:33:45;40.70;;;22.50;;
41305;SDS011;27051;50.376;19.152;2022-11-11T08:36:11;34.37;;;20.23;;
41305;SDS011;27051;50.376;19.152;2022-11-11T08:38:37;37.17;;;22.00;;
41305;SDS011;27051;50.376;19.152;2022-11-11T08:41:04;34.17;;;19.80;;
41305;SDS011;27051;50.376;19.152;2022-11-11T08:43:31;36.58;;;21.40;;
41305;SDS011;27051;50.376;19.152;2022-11-11T08:45:59;33.48;;;19.73;;
41305;SDS011;27051;50.376;19.152;2022-11-11T08:48:26;38.85;;;19.60;;
41305;SDS011;27051;50.376;19.152;2022-11-11T08:50:52;32.70;;;19.63;;
41305;SDS011;27051;50.376;19.152;2022-11-11T08:53:19;31.60;;;17.27;;
41305;SDS011;27051;50.376;19.152;2022-11-11T08:55:44;29.50;;;16.57;;
41305;SDS011;27051;50.376;19.152;2022-11-11T08:58:11;26.43;;;14.77;;
41305;SDS011;27051;50.376;19.152;2022-11-11T09:00:38;26.40;;;14.05;;
41305;SDS011;27051;50.376;19.152;2022-11-11T09:03:05;28.23;;;14.40;;
41305;SDS011;27051;50.376;19.152;2022-11-11T09:05:36;26.10;;;13.55;;
41305;SDS011;27051;50.376;19.152;2022-11-11T09:08:03;22.52;;;11.43;;
41305;SDS011;27051;50.376;19.152;2022-11-11T09:10:31;22.32;;;11.65;;
41305;SDS011;27051;50.376;19.152;2022-11-11T09:12:57;23.73;;;12.47;;
41305;SDS011;27051;50.376;19.152;2022-11-11T09:15:24;23.32;;;12.60;;
41305;SDS011;27051;50.376;19.152;2022-11-11T09:17:50;23.73;;;11.28;;
41305;SDS011;27051;50.376;19.152;2022-11-11T09:20:16;25.40;;;12.10;;
41305;SDS011;27051;50.376;19.152;2022-11-11T09:22:42;22.03;;;11.57;;
41305;SDS011;27051;50.376;19.152;2022-11-11T09:25:09;23.62;;;11.65;;
41305;SDS011;27051;50.376;19.152;2022-11-11T09:27:34;26.33;;;12.13;;
41305;SDS011;27051;50.376;19.152;2022-11-11T09:30:00;19.50;;;11.37;;
41305;SDS011;27051;50.376;19.152;2022-11-11T09:32:26;25.87;;;14.93;;
41305;SDS011;27051;50.376;19.152;2022-11-11T09:34:52;24.40;;;14.63;;
41305;SDS011;27051;50.376;19.152;2022-11-11T09:37:18;23.60;;;12.93;;
41305;SDS011;27051;50.376;19.152;2022-11-11T09:39:43;25.20;;;13.67;;
41305;SDS011;27051;50.376;19.152;2022-11-11T09:50:47;25.82;;;12.28;;
41305;SDS011;27051;50.376;19.152;2022-11-11T09:58:38;20.02;;;11.15;;
41305;SDS011;27051;50.376;19.152;2022-11-11T10:01:47;25.20;;;12.30;;
41305;SDS011;27051;50.376;19.152;2022-11-11T10:04:19;26.37;;;13.30;;
41305;SDS011;27051;50.376;19.152;2022-11-11T10:07:08;25.82;;;12.93;;
41305;SDS011;27051;50.376;19.152;2022-11-11T10:09:48;22.07;;;12.30;;
41305;SDS011;27051;50.376;19.152;2022-11-11T10:12:20;24.77;;;13.15;;
41305;SDS011;27051;50.376;19.152;2022-11-11T10:14:50;29.57;;;15.40;;
41305;SDS011;27051;50.376;19.152;2022-11-11T10:17:31;30.10;;;15.93;;
41305;SDS011;27051;50.376;19.152;2022-11-11T10:20:17;29.67;;;13.90;;
41305;SDS011;27051;50.376;19.152;2022-11-11T10:23:04;32.10;;;15.32;;
41305;SDS011;27051;50.376;19.152;2022-11-11T10:25:40;28.52;;;13.83;;
41305;SDS011;27051;50.376;19.152;2022-11-11T10:28:14;25.88;;;14.28;;
41305;SDS011;27051;50.376;19.152;2022-11-11T10:30:43;30.15;;;14.58;;
41305;SDS011;27051;50.376;19.152;2022-11-11T10:33:26;27.48;;;14.90;;
41305;SDS011;27051;50.376;19.152;2022-11-11T10:35:55;27.37;;;14.63;;
41305;SDS011;27051;50.376;19.152;2022-11-11T10:41:42;29.85;;;14.30;;
41305;SDS011;27051;50.376;19.152;2022-11-11T10:47:04;23.05;;;11.18;;
41305;SDS011;27051;50.376;19.152;2022-11-11T10:49:32;20.80;;;10.98;;
41305;SDS011;27051;50.376;19.152;2022-11-11T10:52:10;20.32;;;10.28;;
41305;SDS011;27051;50.376;19.152;2022-11-11T10:54:48;20.32;;;9.55;;
41305;SDS011;27051;50.376;19.152;2022-11-11T10:57:25;27.75;;;10.88;;
41305;SDS011;27051;50.376;19.152;2022-11-11T11:00:11;69.45;;;20.65;;
41305;SDS011;27051;50.376;19.152;2022-11-11T11:02:40;22.20;;;11.33;;
41305;SDS011;27051;50.376;19.152;2022-11-11T11:05:26;23.32;;;11.20;;
41305;SDS011;27051;50.376;19.152;2022-11-11T11:07:57;18.32;;;9.90;;
41305;SDS011;27051;50.376;19.152;2022-11-11T11:10:32;19.17;;;9.75;;
41305;SDS011;27051;50.376;19.152;2022-11-11T11:15:45;27.05;;;14.87;;
41305;SDS011;27051;50.376;19.152;2022-11-11T11:20:56;23.90;;;10.82;;
41305;SDS011;27051;50.376;19.152;2022-11-11T11:23:39;25.00;;;11.40;;
41305;SDS011;27051;50.376;19.152;2022-11-11T11:26:04;25.82;;;12.90;;
41305;SDS011;27051;50.376;19.152;2022-11-11T11:28:31;25.55;;;12.95;;
41305;SDS011;27051;50.376;19.152;2022-11-11T11:30:58;25.15;;;12.00;;
41305;SDS011;27051;50.376;19.152;2022-11-11T11:36:21;26.05;;;12.85;;
41305;SDS011;27051;50.376;19.152;2022-11-11T11:38:47;23.03;;;12.07;;
41305;SDS011;27051;50.376;19.152;2022-11-11T11:41:14;27.42;;;13.78;;
41305;SDS011;27051;50.376;19.152;2022-11-11T11:43:40;29.57;;;14.50;;
41305;SDS011;27051;50.376;19.152;2022-11-11T11:46:18;34.75;;;17.27;;
41305;SDS011;27051;50.376;19.152;2022-11-11T11:48:53;29.02;;;14.60;;
41305;SDS011;27051;50.376;19.152;2022-11-11T11:57:42;29.63;;;14.90;;
41305;SDS011;27051;50.376;19.152;2022-11-11T12:00:36;26.90;;;13.90;;
41305;SDS011;27051;50.376;19.152;2022-11-11T12:03:16;28.17;;;14.60;;
41305;SDS011;27051;50.376;19.152;2022-11-11T12:14:08;29.80;;;15.00;;
41305;SDS011;27051;50.376;19.152;2022-11-11T12:22:32;25.70;;;13.25;;
41305;SDS011;27051;50.376;19.152;2022-11-11T12:34:17;29.07;;;16.23;;
41305;SDS011;27051;50.376;19.152;2022-11-11T12:37:17;30.05;;;15.75;;
41305;SDS011;27051;50.376;19.152;2022-11-11T12:45:48;35.65;;;17.57;;
41305;SDS011;27051;50.376;19.152;2022-11-11T12:53:49;29.52;;;17.60;;
41305;SDS011;27051;50.376;19.152;2022-11-11T13:05:41;57.75;;;29.55;;
41305;SDS011;27051;50.376;19.152;2022-11-11T13:11:17;35.08;;;18.07;;
41305;SDS011;27051;50.376;19.152;2022-11-11T13:13:58;36.95;;;18.37;;
41305;SDS011;27051;50.376;19.152;2022-11-11T13:16:35;36.48;;;18.25;;
41305;SDS011;27051;50.376;19.152;2022-11-11T13:19:05;31.13;;;16.63;;
41305;SDS011;27051;50.376;19.152;2022-11-11T13:24:26;35.68;;;17.77;;
41305;SDS011;27051;50.376;19.152;2022-11-11T13:26:56;39.23;;;19.10;;
41305;SDS011;27051;50.376;19.152;2022-11-11T13:33:09;35.05;;;17.80;;
41305;SDS011;27051;50.376;19.152;2022-11-11T13:35:08;36.93;;;17.73;;
41305;SDS011;27051;50.376;19.152;2022-11-11T13:37:57;57.17;;;27.82;;
41305;SDS011;27051;50.376;19.152;2022-11-11T13:40:34;51.02;;;24.67;;
41305;SDS011;27051;50.376;19.152;2022-11-11T13:43:21;35.73;;;16.80;;
41305;SDS011;27051;50.376;19.152;2022-11-11T13:51:18;32.33;;;16.37;;
41305;SDS011;27051;50.376;19.152;2022-11-11T13:53:53;30.02;;;15.40;;
41305;SDS011;27051;50.376;19.152;2022-11-11T13:56:24;34.88;;;17.62;;
41305;SDS011;27051;50.376;19.152;2022-11-11T13:58:59;32.58;;;17.67;;
41305;SDS011;27051;50.376;19.152;2022-11-11T14:01:31;33.97;;;18.07;;
41305;SDS011;27051;50.376;19.152;2022-11-11T14:04:03;36.17;;;18.10;;
41305;SDS011;27051;50.376;19.152;2022-11-11T14:06:35;41.83;;;21.97;;
41305;SDS011;27051;50.376;19.152;2022-11-11T14:09:08;48.38;;;23.35;;
41305;SDS011;27051;50.376;19.152;2022-11-11T14:11:34;57.47;;;29.33;;
41305;SDS011;27051;50.376;19.152;2022-11-11T14:17:10;70.55;;;36.58;;
41305;SDS011;27051;50.376;19.152;2022-11-11T14:19:29;53.17;;;28.73;;
41305;SDS011;27051;50.376;19.152;2022-11-11T14:21:56;46.05;;;24.63;;
41305;SDS011;27051;50.376;19.152;2022-11-11T14:24:43;39.65;;;22.17;;
41305;SDS011;27051;50.376;19.152;2022-11-11T14:29:51;31.48;;;17.40;;
41305;SDS011;27051;50.376;19.152;2022-11-11T14:32:40;35.35;;;19.40;;
41305;SDS011;27051;50.376;19.152;2022-11-11T14:41:37;34.50;;;18.40;;
41305;SDS011;27051;50.376;19.152;2022-11-11T14:55:51;64.22;;;29.50;;
41305;SDS011;27051;50.376;19.152;2022-11-11T14:58:10;77.67;;;38.48;;
41305;SDS011;27051;50.376;19.152;2022-11-11T15:00:51;88.85;;;44.10;;
41305;SDS011;27051;50.376;19.152;2022-11-11T15:06:10;58.10;;;31.25;;
41305;SDS011;27051;50.376;19.152;2022-11-11T15:11:44;73.78;;;38.83;;
41305;SDS011;27051;50.376;19.152;2022-11-11T15:17:51;65.05;;;36.40;;
41305;SDS011;27051;50.376;19.152;2022-11-11T15:20:43;51.58;;;31.15;;
41305;SDS011;27051;50.376;19.152;2022-11-11T15:31:33;39.95;;;24.00;;
41305;SDS011;27051;50.376;19.152;2022-11-11T15:39:26;43.20;;;26.93;;
41305;SDS011;27051;50.376;19.152;2022-11-11T15:45:00;52.58;;;29.77;;
41305;SDS011;27051;50.376;19.152;2022-11-11T15:47:34;50.23;;;28.15;;
41305;SDS011;27051;50.376;19.152;2022-11-11T15:50:01;47.58;;;27.10;;
41305;SDS011;27051;50.376;19.152;2022-11-11T15:52:30;49.20;;;27.47;;
41305;SDS011;27051;50.376;19.152;2022-11-11T15:54:58;45.45;;;27.25;;
41305;SDS011;27051;50.376;19.152;2022-11-11T15:57:28;66.45;;;39.42;;
41305;SDS011;27051;50.376;19.152;2022-11-11T15:59:57;98.22;;;56.40;;
41305;SDS011;27051;50.376;19.152;2022-11-11T16:02:26;73.00;;;43.13;;
41305;SDS011;27051;50.376;19.152;2022-11-11T16:07:44;56.45;;;31.95;;
41305;SDS011;27051;50.376;19.152;2022-11-11T16:10:12;53.70;;;30.08;;
41305;SDS011;27051;50.376;19.152;2022-11-11T16:12:53;52.08;;;29.95;;
41305;SDS011;27051;50.376;19.152;2022-11-11T16:18:00;50.10;;;29.67;;
41305;SDS011;27051;50.376;19.152;2022-11-11T16:20:36;52.93;;;30.77;;
41305;SDS011;27051;50.376;19.152;2022-11-11T16:23:11;52.73;;;29.57;;
41305;SDS011;27051;50.376;19.152;2022-11-11T16:25:41;50.88;;;30.70;;
41305;SDS011;27051;50.376;19.152;2022-11-11T16:28:11;66.62;;;38.80;;
41305;SDS011;27051;50.376;19.152;2022-11-11T16:30:37;80.05;;;44.58;;
41305;SDS011;27051;50.376;19.152;2022-11-11T16:33:03;74.13;;;39.17;;
41305;SDS011;27051;50.376;19.152;2022-11-11T16:35:52;76.65;;;42.03;;
41305;SDS011;27051;50.376;19.152;2022-11-11T16:38:30;104.33;;;63.87;;
41305;SDS011;27051;50.376;19.152;2022-11-11T16:40:57;77.03;;;44.75;;
41305;SDS011;27051;50.376;19.152;2022-11-11T16:43:25;75.90;;;40.58;;
41305;SDS011;27051;50.376;19.152;2022-11-11T16:51:04;78.90;;;40.80;;
41305;SDS011;27051;50.376;19.152;2022-11-11T16:53:34;71.02;;;36.83;;
41305;SDS011;27051;50.376;19.152;2022-11-11T16:56:04;79.07;;;42.73;;
41305;SDS011;27051;50.376;19.152;2022-11-11T16:58:31;68.55;;;38.25;;
41305;SDS011;27051;50.376;19.152;2022-11-11T17:00:59;66.82;;;35.25;;
41305;SDS011;27051;50.376;19.152;2022-11-11T17:03:27;61.10;;;31.65;;